createdAt,value
2017-12-25T00:01:44.659Z,0.90
2017-12-25T00:04:12.103Z,2.03
2017-12-25T00:06:39.565Z,0.83
2017-12-25T00:09:07.005Z,0.97
2017-12-25T00:11:34.436Z,0.73
2017-12-25T00:14:01.911Z,1.13
2017-12-25T00:16:29.625Z,0.40
2017-12-25T00:18:57.094Z,2.17
2017-12-25T00:21:24.536Z,0.50
2017-12-25T00:23:59.503Z,1.00
2017-12-25T00:26:26.937Z,0.70
2017-12-25T00:28:54.382Z,2.30
2017-12-25T00:31:22.607Z,2.57
2017-12-25T00:33:50.060Z,2.43
2017-12-25T00:36:17.492Z,1.53
2017-12-25T00:38:44.937Z,1.20
2017-12-25T00:41:13.171Z,0.83
2017-12-25T00:43:40.628Z,2.37
2017-12-25T00:46:08.092Z,0.50
2017-12-25T00:48:35.521Z,1.03
2017-12-25T00:51:02.974Z,1.00
2017-12-25T00:53:30.452Z,0.50
2017-12-25T00:55:57.897Z,0.90
2017-12-25T00:58:25.328Z,0.50
2017-12-25T01:00:52.777Z,0.83
2017-12-25T01:03:20.236Z,1.90
2017-12-25T01:05:47.677Z,1.13
2017-12-25T01:08:15.118Z,0.80
2017-12-25T01:10:42.556Z,0.70
2017-12-25T01:13:10.782Z,0.77
2017-12-25T01:15:38.250Z,0.50
2017-12-25T01:18:05.699Z,0.80
2017-12-25T01:20:33.155Z,1.23
2017-12-25T01:23:00.610Z,0.63
2017-12-25T01:25:28.069Z,1.80
2017-12-25T01:27:55.517Z,0.83
2017-12-25T01:30:22.964Z,1.27
2017-12-25T01:32:50.399Z,1.13
2017-12-25T01:35:17.857Z,0.90
2017-12-25T01:37:45.486Z,0.97
2017-12-25T01:40:13.101Z,0.73
2017-12-25T01:42:40.552Z,1.10
2017-12-25T01:45:08.026Z,0.70
2017-12-25T01:47:35.453Z,0.60
2017-12-25T01:50:02.918Z,4.67
2017-12-25T01:52:30.387Z,2.63
2017-12-25T01:54:57.849Z,0.70
2017-12-25T01:57:28.055Z,0.50
2017-12-25T02:02:54.139Z,1.13
2017-12-25T02:05:28.868Z,0.60
2017-12-25T02:08:20.884Z,0.90
2017-12-25T02:10:48.339Z,3.60
2017-12-25T02:13:15.811Z,0.70
2017-12-25T02:15:44.777Z,0.70
2017-12-25T02:18:12.217Z,0.50
2017-12-25T02:20:39.679Z,0.57
2017-12-25T02:23:07.144Z,0.53
2017-12-25T02:25:34.607Z,3.80
2017-12-25T02:28:02.042Z,1.00
2017-12-25T02:30:29.495Z,0.50
2017-12-25T02:32:56.957Z,0.50
2017-12-25T02:35:24.413Z,0.67
2017-12-25T02:37:51.959Z,0.40
2017-12-25T02:40:19.428Z,0.50
2017-12-25T02:42:46.886Z,1.13
2017-12-25T02:45:14.360Z,0.57
2017-12-25T02:47:41.810Z,0.40
2017-12-25T02:50:09.270Z,0.80
2017-12-25T02:52:36.716Z,0.50
2017-12-25T02:55:04.162Z,0.50
2017-12-25T02:57:31.630Z,0.50
2017-12-25T02:59:59.080Z,0.50
2017-12-25T03:02:26.543Z,0.50
2017-12-25T03:04:53.980Z,0.50
2017-12-25T03:07:21.420Z,0.40
2017-12-25T03:09:48.882Z,0.70
2017-12-25T03:12:16.334Z,0.60
2017-12-25T03:14:43.798Z,0.67
2017-12-25T03:17:11.257Z,0.87
2017-12-25T03:19:38.720Z,1.17
2017-12-25T03:22:06.215Z,0.50
2017-12-25T03:24:33.666Z,0.40
2017-12-25T03:27:01.138Z,0.67
2017-12-25T03:29:28.592Z,0.90
2017-12-25T03:31:56.046Z,0.60
2017-12-25T03:34:23.485Z,2.60
2017-12-25T03:36:50.929Z,0.90
2017-12-25T03:39:18.411Z,0.70
2017-12-25T03:41:45.833Z,1.90
2017-12-25T03:44:13.290Z,3.60
2017-12-25T03:46:40.757Z,0.40
2017-12-25T03:49:08.204Z,0.60
2017-12-25T03:51:35.661Z,0.50
2017-12-25T03:54:03.119Z,0.90
2017-12-25T03:56:30.581Z,0.60
2017-12-25T03:58:58.020Z,0.50
2017-12-25T04:01:25.477Z,0.70
2017-12-25T04:03:53.866Z,0.60
2017-12-25T04:06:21.300Z,1.00
2017-12-25T04:08:51.783Z,0.87
2017-12-25T04:11:19.225Z,0.80
2017-12-25T04:13:46.687Z,2.50
2017-12-25T04:16:14.138Z,1.43
2017-12-25T04:18:42.345Z,0.93
2017-12-25T04:21:09.806Z,0.70
2017-12-25T04:23:37.246Z,1.00
2017-12-25T04:26:04.699Z,2.80
2017-12-25T04:28:32.150Z,0.57
2017-12-25T04:30:59.595Z,0.70
2017-12-25T04:33:27.969Z,0.80
2017-12-25T04:35:55.539Z,0.97
2017-12-25T04:38:23.005Z,0.83
2017-12-25T04:40:51.968Z,0.50
2017-12-25T04:43:19.427Z,0.60
2017-12-25T04:45:49.551Z,0.40
2017-12-25T04:48:17.012Z,0.67
2017-12-25T04:50:44.479Z,0.57
2017-12-25T04:53:11.950Z,0.87
2017-12-25T04:55:39.402Z,0.90
2017-12-25T04:58:06.863Z,0.73
2017-12-25T05:00:34.308Z,1.00
2017-12-25T05:03:01.753Z,0.60
2017-12-25T05:05:29.184Z,0.60
2017-12-25T05:07:57.406Z,0.60
2017-12-25T05:10:25.123Z,0.60
2017-12-25T05:12:52.575Z,0.70
2017-12-25T05:15:20.029Z,0.73
2017-12-25T05:17:47.486Z,1.00
2017-12-25T05:20:14.935Z,0.50
2017-12-25T05:22:42.405Z,0.73
2017-12-25T05:25:09.833Z,1.90
2017-12-25T05:27:37.287Z,2.10
2017-12-25T05:30:04.791Z,1.30
2017-12-25T05:32:32.221Z,0.87
2017-12-25T05:34:59.673Z,0.70
2017-12-25T05:37:27.122Z,1.10
2017-12-25T05:39:54.592Z,0.70
2017-12-25T05:42:22.044Z,0.83
2017-12-25T05:44:49.479Z,0.73
2017-12-25T05:47:16.939Z,1.43
2017-12-25T05:49:45.167Z,1.37
2017-12-25T05:52:12.954Z,0.73
2017-12-25T05:54:40.398Z,0.50
2017-12-25T05:57:07.839Z,0.60
2017-12-25T05:59:35.344Z,0.53
2017-12-25T06:02:02.785Z,1.70
2017-12-25T06:04:30.234Z,1.17
2017-12-25T06:06:57.705Z,1.53
2017-12-25T06:09:25.201Z,1.03
2017-12-25T06:11:52.668Z,1.30
2017-12-25T06:14:20.510Z,0.60
2017-12-25T06:16:47.965Z,0.70
2017-12-25T06:19:15.423Z,1.10
2017-12-25T06:21:42.877Z,0.87
2017-12-25T06:24:10.342Z,0.53
2017-12-25T06:26:37.769Z,1.30
2017-12-25T06:29:05.217Z,1.20
2017-12-25T06:31:32.656Z,1.07
2017-12-25T06:34:00.118Z,0.80
2017-12-25T06:36:27.569Z,0.87
2017-12-25T06:38:57.908Z,1.00
2017-12-25T06:41:25.376Z,1.13
2017-12-25T06:43:52.939Z,1.20
2017-12-25T06:46:20.697Z,0.70
2017-12-25T06:48:48.173Z,1.00
2017-12-25T06:51:15.620Z,0.70
2017-12-25T06:53:43.101Z,2.83
2017-12-25T06:56:10.531Z,1.17
2017-12-25T06:58:37.978Z,1.50
2017-12-25T07:01:05.434Z,0.97
2017-12-25T07:03:32.875Z,0.90
2017-12-25T07:06:00.339Z,0.93
2017-12-25T07:08:27.786Z,0.90
2017-12-25T07:10:55.219Z,0.90
2017-12-25T07:13:23.172Z,1.10
2017-12-25T07:15:50.626Z,6.23
2017-12-25T07:18:18.310Z,2.37
2017-12-25T07:20:45.743Z,0.57
2017-12-25T07:23:13.224Z,0.60
2017-12-25T07:25:40.806Z,0.40
2017-12-25T07:28:08.255Z,0.70
2017-12-25T07:30:35.692Z,1.80
2017-12-25T07:33:03.156Z,0.50
2017-12-25T07:35:30.572Z,1.63
2017-12-25T07:37:58.024Z,0.87
2017-12-25T07:40:25.473Z,0.60
2017-12-25T07:42:52.912Z,0.70
2017-12-25T07:45:20.353Z,0.80
2017-12-25T07:47:47.827Z,1.93
2017-12-25T07:50:15.335Z,0.60
2017-12-25T07:52:44.237Z,0.43
2017-12-25T07:55:12.712Z,0.80
2017-12-25T07:57:40.153Z,1.07
2017-12-25T08:00:07.615Z,0.40
2017-12-25T08:02:35.064Z,1.00
2017-12-25T08:05:03.601Z,0.40
2017-12-25T08:07:31.044Z,0.50
2017-12-25T08:09:58.713Z,0.70
2017-12-25T08:12:26.171Z,1.23
2017-12-25T08:14:53.597Z,0.90
2017-12-25T08:17:21.064Z,0.40
2017-12-25T08:19:48.833Z,0.50
2017-12-25T08:22:16.298Z,0.50
2017-12-25T08:24:43.741Z,0.40
2017-12-25T08:27:11.325Z,0.60
2017-12-25T08:29:38.818Z,0.40
2017-12-25T08:32:07.058Z,0.47
2017-12-25T08:34:34.542Z,0.40
2017-12-25T08:37:01.995Z,0.60
2017-12-25T08:39:29.478Z,0.50
2017-12-25T08:41:56.910Z,0.70
2017-12-25T08:44:24.359Z,0.40
2017-12-25T08:46:51.826Z,0.50
2017-12-25T08:49:19.261Z,0.40
2017-12-25T08:51:46.706Z,0.60
2017-12-25T08:54:14.175Z,1.83
2017-12-25T08:56:41.621Z,0.40
2017-12-25T08:59:09.063Z,0.40
2017-12-25T09:01:36.520Z,0.40
2017-12-25T09:06:45.883Z,0.40
2017-12-25T09:09:13.330Z,0.77
2017-12-25T09:11:40.809Z,0.40
2017-12-25T09:14:08.244Z,0.50
2017-12-25T09:16:35.702Z,0.40
2017-12-25T09:19:03.160Z,0.50
2017-12-25T09:21:30.615Z,0.70
2017-12-25T09:23:59.515Z,0.50
2017-12-25T09:26:26.971Z,0.40
2017-12-25T09:28:54.407Z,0.60
2017-12-25T09:31:21.861Z,0.90
2017-12-25T09:33:49.311Z,0.50
2017-12-25T09:36:16.772Z,0.50
2017-12-25T09:38:45.006Z,0.68
2017-12-25T09:41:12.481Z,0.50
2017-12-25T09:43:39.915Z,0.80
2017-12-25T09:46:07.402Z,0.50
2017-12-25T09:48:35.292Z,0.40
2017-12-25T09:51:02.753Z,0.40
2017-12-25T09:53:30.177Z,0.40
2017-12-25T09:55:57.704Z,0.40
2017-12-25T09:58:25.151Z,0.40
2017-12-25T10:00:52.611Z,0.60
2017-12-25T10:03:20.062Z,0.40
2017-12-25T10:05:47.501Z,0.60
2017-12-25T10:08:14.962Z,0.60
2017-12-25T10:10:42.435Z,0.50
2017-12-25T10:13:09.879Z,0.60
2017-12-25T10:15:37.314Z,1.90
2017-12-25T10:18:04.780Z,0.50
2017-12-25T10:20:32.222Z,0.40
2017-12-25T10:22:59.677Z,0.40
2017-12-25T10:25:27.128Z,0.70
2017-12-25T10:27:54.556Z,0.47
2017-12-25T10:30:22.313Z,0.55
2017-12-25T10:32:49.778Z,1.70
2017-12-25T10:35:17.213Z,1.67
2017-12-25T10:37:44.653Z,1.20
2017-12-25T10:40:12.118Z,0.57
2017-12-25T10:42:39.553Z,0.90
2017-12-25T10:45:07.782Z,0.70
2017-12-25T10:47:35.257Z,0.50
2017-12-25T10:50:02.697Z,0.88
2017-12-25T10:52:30.132Z,2.45
2017-12-25T10:54:57.598Z,1.27
2017-12-25T10:57:25.046Z,0.50
2017-12-25T10:59:52.480Z,1.20
2017-12-25T11:02:19.951Z,2.30
2017-12-25T11:04:48.156Z,1.03
2017-12-25T11:07:15.613Z,0.80
2017-12-25T11:09:43.070Z,1.37
2017-12-25T11:12:10.514Z,0.93
2017-12-25T11:14:37.992Z,1.00
2017-12-25T11:17:05.447Z,2.37
2017-12-25T11:19:33.051Z,0.60
2017-12-25T11:22:00.502Z,0.80
2017-12-25T11:24:27.949Z,2.10
2017-12-25T11:26:55.409Z,0.70
2017-12-25T11:29:22.861Z,0.63
2017-12-25T11:31:51.075Z,1.40
2017-12-25T11:34:18.528Z,1.10
2017-12-25T11:36:49.120Z,1.23
2017-12-25T11:39:16.587Z,1.33
2017-12-25T11:41:44.022Z,0.87
2017-12-25T11:44:11.452Z,1.30
2017-12-25T11:46:38.988Z,2.30
2017-12-25T11:49:10.051Z,1.73
2017-12-25T11:51:37.510Z,0.50
2017-12-25T11:54:04.967Z,0.63
2017-12-25T11:56:32.407Z,1.27
2017-12-25T11:59:00.613Z,2.07
2017-12-25T12:01:34.849Z,0.80
2017-12-25T12:04:02.302Z,0.60
2017-12-25T12:06:29.738Z,2.10
2017-12-25T12:08:59.599Z,1.00
2017-12-25T12:11:27.090Z,0.80
2017-12-25T12:13:56.083Z,1.30
2017-12-25T12:16:23.522Z,1.30
2017-12-25T12:18:51.015Z,1.87
2017-12-25T12:21:18.461Z,0.70
2017-12-25T12:23:45.941Z,1.00
2017-12-25T12:26:13.412Z,0.50
2017-12-25T12:28:40.844Z,1.20
2017-12-25T12:31:08.296Z,1.23
2017-12-25T12:33:35.755Z,0.70
2017-12-25T12:36:03.214Z,1.50
2017-12-25T12:38:30.641Z,0.80
2017-12-25T12:40:58.110Z,5.50
2017-12-25T12:43:25.575Z,0.80
2017-12-25T12:45:53.028Z,1.00
2017-12-25T12:48:20.484Z,2.10
2017-12-25T12:50:47.926Z,0.60
2017-12-25T12:53:15.799Z,1.27
2017-12-25T12:55:43.377Z,1.00
2017-12-25T12:58:10.840Z,1.13
2017-12-25T13:00:38.295Z,0.40
2017-12-25T13:03:05.772Z,0.50
2017-12-25T13:05:33.243Z,1.10
2017-12-25T13:08:00.676Z,0.70
2017-12-25T13:10:28.113Z,0.52
2017-12-25T13:12:55.786Z,0.80
2017-12-25T13:15:23.237Z,0.50
2017-12-25T13:17:50.698Z,0.60
2017-12-25T13:20:18.144Z,0.50
2017-12-25T13:22:45.585Z,1.97
2017-12-25T13:25:13.043Z,1.00
2017-12-25T13:27:40.479Z,0.60
2017-12-25T13:30:07.954Z,0.70
2017-12-25T13:32:35.393Z,0.60
2017-12-25T13:35:02.848Z,2.22
2017-12-25T13:37:30.285Z,2.10
2017-12-25T13:39:57.757Z,4.18
2017-12-25T13:42:25.978Z,3.33
2017-12-25T13:44:53.440Z,4.23
2017-12-25T13:47:20.887Z,4.27
2017-12-25T13:49:48.364Z,5.67
2017-12-25T13:52:15.803Z,6.78
2017-12-25T13:54:43.829Z,4.90
2017-12-25T13:57:11.284Z,2.63
2017-12-25T13:59:38.716Z,4.70
2017-12-25T14:02:06.199Z,6.20
2017-12-25T14:04:33.654Z,8.63
2017-12-25T14:07:01.123Z,4.97
2017-12-25T14:09:28.573Z,5.57
2017-12-25T14:11:56.039Z,4.53
2017-12-25T14:14:23.493Z,5.93
2017-12-25T14:16:51.135Z,4.37
2017-12-25T14:19:18.597Z,6.90
2017-12-25T14:21:46.033Z,4.90
2017-12-25T14:24:14.262Z,5.80
2017-12-25T14:26:41.727Z,3.73
2017-12-25T14:29:09.172Z,6.53
2017-12-25T14:31:36.936Z,3.73
2017-12-25T14:34:04.392Z,3.30
2017-12-25T14:36:31.836Z,5.60
2017-12-25T14:38:59.950Z,2.97
2017-12-25T14:41:27.401Z,3.50
2017-12-25T14:43:55.699Z,5.73
2017-12-25T14:46:23.145Z,4.20
2017-12-25T14:48:50.587Z,3.43
2017-12-25T14:51:18.405Z,5.13
2017-12-25T14:53:45.887Z,4.23
2017-12-25T14:56:13.346Z,4.07
2017-12-25T14:58:40.807Z,5.93
2017-12-25T15:01:08.243Z,3.30
2017-12-25T15:03:35.701Z,3.93
2017-12-25T15:06:03.149Z,4.47
2017-12-25T15:08:30.626Z,8.67
2017-12-25T15:10:58.079Z,6.00
2017-12-25T15:13:25.525Z,8.40
2017-12-25T15:15:52.968Z,6.57
2017-12-25T15:18:20.405Z,3.83
2017-12-25T15:20:47.867Z,9.83
2017-12-25T15:23:15.301Z,6.40
2017-12-25T15:25:42.753Z,5.53
2017-12-25T15:28:10.212Z,10.33
2017-12-25T15:30:37.676Z,5.00
2017-12-25T15:33:05.249Z,5.23
2017-12-25T15:35:32.684Z,6.47
2017-12-25T15:38:00.151Z,8.33
2017-12-25T15:40:27.612Z,8.60
2017-12-25T15:42:55.068Z,6.20
2017-12-25T15:45:22.531Z,7.27
2017-12-25T15:47:49.967Z,9.80
2017-12-25T15:50:17.403Z,8.10
2017-12-25T15:52:44.870Z,6.37
2017-12-25T15:55:12.308Z,6.57
2017-12-25T15:57:40.517Z,6.63
2017-12-25T16:00:07.979Z,4.07
2017-12-25T16:02:35.423Z,6.53
2017-12-25T16:05:02.881Z,7.17
2017-12-25T16:07:30.322Z,3.53
2017-12-25T16:09:57.792Z,4.77
2017-12-25T16:12:25.229Z,4.60
2017-12-25T16:14:52.671Z,4.60
2017-12-25T16:17:20.129Z,5.77
2017-12-25T16:19:47.574Z,6.07
2017-12-25T16:22:15.034Z,4.73
2017-12-25T16:24:42.645Z,3.50
2017-12-25T16:27:10.076Z,8.57
2017-12-25T16:29:37.532Z,6.63
2017-12-25T16:32:05.043Z,6.47
2017-12-25T16:34:32.496Z,6.63
2017-12-25T16:36:59.956Z,4.13
2017-12-25T16:39:27.406Z,5.70
2017-12-25T16:41:54.880Z,5.83
2017-12-25T16:44:22.315Z,6.83
2017-12-25T16:46:49.764Z,7.70
2017-12-25T16:49:17.220Z,5.23
2017-12-25T16:51:44.656Z,9.97
2017-12-25T16:54:12.245Z,6.20
2017-12-25T16:56:39.639Z,7.83
2017-12-25T16:59:07.116Z,7.67
2017-12-25T17:01:36.374Z,5.40
2017-12-25T17:04:03.826Z,4.77
2017-12-25T17:06:31.293Z,8.23
2017-12-25T17:09:02.451Z,12.40
2017-12-25T17:11:29.911Z,11.47
2017-12-25T17:14:00.805Z,4.40
2017-12-25T17:16:28.239Z,4.70
2017-12-25T17:18:55.676Z,4.50
2017-12-25T17:21:23.138Z,9.20
2017-12-25T17:23:50.604Z,7.00
2017-12-25T17:26:18.051Z,8.07
2017-12-25T17:28:45.509Z,6.30
2017-12-25T17:31:12.971Z,7.23
2017-12-25T17:33:40.429Z,8.43
2017-12-25T17:36:07.894Z,8.90
2017-12-25T17:38:35.330Z,9.03
2017-12-25T17:41:02.779Z,12.73
2017-12-25T17:43:30.235Z,7.23
2017-12-25T17:45:58.436Z,15.63
2017-12-25T17:48:25.890Z,8.20
2017-12-25T17:50:53.322Z,11.73
2017-12-25T17:53:20.777Z,12.13
2017-12-25T17:55:48.247Z,10.70
2017-12-25T17:58:15.703Z,5.10
2017-12-25T18:00:43.156Z,9.70
2017-12-25T18:03:10.594Z,10.57
2017-12-25T18:05:38.038Z,8.77
2017-12-25T18:08:05.488Z,10.03
2017-12-25T18:10:32.950Z,12.03
2017-12-25T18:13:00.577Z,5.63
2017-12-25T18:15:28.035Z,9.50
2017-12-25T18:17:55.488Z,7.03
2017-12-25T18:20:23.170Z,8.17
2017-12-25T18:22:50.621Z,8.07
2017-12-25T18:25:18.839Z,8.17
2017-12-25T18:27:46.286Z,6.57
2017-12-25T18:30:14.517Z,6.27
2017-12-25T18:32:42.268Z,6.13
2017-12-25T18:35:09.700Z,6.73
2017-12-25T18:37:37.250Z,7.37
2017-12-25T18:40:04.692Z,8.50
2017-12-25T18:42:32.161Z,9.00
2017-12-25T18:44:59.614Z,4.90
2017-12-25T18:47:27.079Z,6.80
2017-12-25T18:49:54.537Z,9.83
2017-12-25T18:52:21.997Z,7.43
2017-12-25T18:54:49.437Z,8.00
2017-12-25T18:57:16.892Z,6.53
2017-12-25T18:59:44.355Z,10.83
2017-12-25T19:02:11.853Z,6.43
2017-12-25T19:04:39.307Z,7.83
2017-12-25T19:07:07.512Z,7.67
2017-12-25T19:09:34.956Z,8.40
2017-12-25T19:12:02.413Z,8.70
2017-12-25T19:14:29.865Z,7.07
2017-12-25T19:16:57.296Z,4.80
2017-12-25T19:19:24.734Z,8.07
2017-12-25T19:21:52.199Z,5.90
2017-12-25T19:24:19.621Z,5.37
2017-12-25T19:26:47.088Z,6.97
2017-12-25T19:29:14.516Z,7.23
2017-12-25T19:31:43.487Z,8.90
2017-12-25T19:34:10.952Z,6.60
2017-12-25T19:36:38.407Z,8.53
2017-12-25T19:39:05.892Z,5.20
2017-12-25T19:41:33.326Z,5.50
2017-12-25T19:44:03.901Z,9.30
2017-12-25T19:46:31.367Z,8.60
2017-12-25T19:48:58.810Z,8.27
2017-12-25T19:51:26.262Z,5.37
2017-12-25T19:53:58.231Z,9.13
2017-12-25T19:56:26.949Z,10.90
2017-12-25T19:58:54.404Z,10.67
2017-12-25T20:01:21.847Z,7.47
2017-12-25T20:03:49.310Z,12.93
2017-12-25T20:06:16.747Z,6.47
2017-12-25T20:08:44.212Z,5.40
2017-12-25T20:11:11.665Z,9.37
2017-12-25T20:13:39.110Z,8.10
2017-12-25T20:16:06.593Z,5.30
2017-12-25T20:18:34.029Z,8.20
2017-12-25T20:21:01.500Z,13.67
2017-12-25T20:23:28.932Z,7.70
2017-12-25T20:25:56.373Z,6.67
2017-12-25T20:28:23.835Z,5.03
2017-12-25T20:30:51.294Z,7.40
2017-12-25T20:33:18.767Z,6.17
2017-12-25T20:35:46.212Z,7.13
2017-12-25T20:38:13.850Z,6.53
2017-12-25T20:40:41.313Z,11.53
2017-12-25T20:43:08.987Z,6.80
2017-12-25T20:45:36.441Z,4.57
2017-12-25T20:48:03.881Z,8.10
2017-12-25T20:50:31.330Z,6.83
2017-12-25T20:52:58.807Z,12.80
2017-12-25T20:55:26.242Z,5.03
2017-12-25T20:57:53.691Z,5.77
2017-12-25T21:00:21.132Z,6.60
2017-12-25T21:02:48.568Z,4.87
2017-12-25T21:05:16.017Z,5.17
2017-12-25T21:07:43.455Z,7.50
2017-12-25T21:10:20.767Z,6.93
2017-12-25T21:12:48.220Z,9.30
2017-12-25T21:15:15.657Z,10.47
2017-12-25T21:17:43.310Z,10.63
2017-12-25T21:20:10.829Z,7.43
2017-12-25T21:22:38.276Z,10.17
2017-12-25T21:25:05.709Z,5.50
2017-12-25T21:27:33.149Z,8.03
2017-12-25T21:30:01.373Z,15.60
2017-12-25T21:32:28.820Z,8.43
2017-12-25T21:34:56.299Z,10.33
2017-12-25T21:37:23.743Z,7.80
2017-12-25T21:39:51.173Z,4.33
2017-12-25T21:42:18.626Z,7.80
2017-12-25T21:44:46.068Z,9.37
2017-12-25T21:47:13.521Z,5.57
2017-12-25T21:49:40.966Z,8.50
2017-12-25T21:52:08.410Z,9.63
2017-12-25T21:54:35.872Z,10.67
2017-12-25T21:57:03.317Z,4.10
2017-12-25T21:59:30.772Z,10.43
2017-12-25T22:01:58.213Z,11.90
2017-12-25T22:04:25.675Z,4.63
2017-12-25T22:06:53.126Z,6.83
2017-12-25T22:09:20.569Z,9.60
2017-12-25T22:11:48.030Z,15.40
2017-12-25T22:14:15.500Z,9.37
2017-12-25T22:16:42.926Z,9.30
2017-12-25T22:19:10.393Z,13.47
2017-12-25T22:21:37.841Z,13.40
2017-12-25T22:24:05.315Z,5.27
2017-12-25T22:26:33.543Z,9.60
2017-12-25T22:29:01.011Z,8.20
2017-12-25T22:31:28.461Z,7.30
2017-12-25T22:33:55.924Z,10.40
2017-12-25T22:36:23.388Z,8.63
2017-12-25T22:38:52.884Z,7.13
2017-12-25T22:41:20.333Z,13.80
2017-12-25T22:43:47.787Z,10.77
2017-12-25T22:46:15.226Z,14.40
2017-12-25T22:48:42.685Z,17.03
2017-12-25T22:51:10.118Z,11.40
2017-12-25T22:53:37.553Z,11.57
2017-12-25T22:56:05.023Z,11.03
2017-12-25T22:58:32.479Z,16.60
2017-12-25T23:00:59.922Z,7.60
2017-12-25T23:03:27.357Z,5.83
2017-12-25T23:05:54.808Z,7.80
2017-12-25T23:08:22.278Z,9.23
2017-12-25T23:10:49.885Z,9.83
2017-12-25T23:13:17.346Z,7.77
2017-12-25T23:15:44.785Z,6.13
2017-12-25T23:18:12.233Z,11.33
2017-12-25T23:20:39.685Z,3.97
2017-12-25T23:23:07.122Z,10.40
2017-12-25T23:25:34.607Z,8.97
2017-12-25T23:28:02.059Z,6.47
2017-12-25T23:30:29.493Z,8.77
2017-12-25T23:32:56.962Z,13.47
2017-12-25T23:35:24.661Z,5.37
2017-12-25T23:37:52.108Z,6.53
2017-12-25T23:40:19.558Z,15.33
2017-12-25T23:42:46.996Z,4.40
2017-12-25T23:45:15.209Z,8.40
2017-12-25T23:47:42.649Z,12.07
2017-12-25T23:50:10.108Z,12.33
2017-12-25T23:52:37.540Z,12.00
2017-12-25T23:55:04.986Z,6.00
2017-12-25T23:57:32.441Z,7.67
2017-12-25T23:59:59.872Z,9.20
